Flight Track Log - Related Links

Times and Time Zones

All times are in EDT time to prevent confusion due to time zone crossing. See the ASQ5685 flight status page for this flight to view local times or setup timezone preferences in your user account.

Time Position Orientation Groundspeed Altitude Reporting Facility
EDT Latitude Longitude Course Direction KTS MPH feet Rate Location/Type
Tue 10:02:58 AM 33.6333 -84.4667 53° Northeast 172 198 2,500  Level Atlanta TRACON
Tue 10:03:58 AM 33.6000 -84.5500 244° Southwest 254 292 3,800 2,000 Climbing Atlanta TRACON
Tue 10:04:58 AM 33.5500 -84.5833 209° Southwest 276 318 6,500 2,476 Climbing Atlanta TRACON
Tue 10:06:04 AM 33.4667 -84.5500 162° South 293 337 9,000 1,953 Climbing Atlanta TRACON
Tue 10:07:07 AM 33.4575 -84.4597 97° East 306 352 10,700 1,366 Climbing Atlanta Center
Tue 10:08:00 AM 34.0753 -83.9047 53° Northeast  Level Estimated
Tue 10:08:07 AM 33.4558 -84.3525 91° East 317 365 11,800  Level Atlanta Center
Tue 10:09:07 AM 33.4978 -84.2506 64° Northeast 341 392 13,300 1,500 Climbing Atlanta Center
Tue 10:10:07 AM 33.5833 -84.1933 29° Northeast 336 387 14,800 1,400 Climbing Atlanta Center
Tue 10:11:07 AM 33.6731 -84.1361 28° Northeast 349 402 16,100 1,300 Climbing Atlanta Center
Tue 10:12:07 AM 33.7525 -84.0614 38° Northeast 355 409 17,400 1,200 Climbing Atlanta Center
Tue 10:13:07 AM 33.8067 -83.9539 59° Northeast 360 414 18,500 1,300 Climbing Atlanta Center
Tue 10:14:07 AM 33.8608 -83.8511 58° Northeast 360 414 20,000 1,500 Climbing Atlanta Center
Tue 10:15:07 AM 33.9128 -83.7483 59° Northeast 360 414 21,500 1,350 Climbing Atlanta Center
Tue 10:16:07 AM 33.9731 -83.6431 55° Northeast 352 405 22,700 1,100 Climbing Atlanta Center
Tue 10:17:07 AM 34.0353 -83.5500 51° Northeast 347 399 23,700 900 Climbing Atlanta Center
Tue 10:18:07 AM 34.0933 -83.4544 54° Northeast 352 405 24,500 700 Climbing Atlanta Center
Tue 10:19:07 AM 34.1575 -83.3558 52° Northeast 357 411 25,100 600 Climbing Atlanta Center
Tue 10:20:07 AM 34.2197 -83.2550 53° Northeast 363 418 25,700 650 Climbing Atlanta Center
Tue 10:21:07 AM 34.2836 -83.1539 53° Northeast 373 429 26,400 700 Climbing Atlanta Center
Tue 10:22:07 AM 34.3456 -83.0500 54° Northeast 373 429 27,100 700 Climbing Atlanta Center
Tue 10:23:07 AM 34.4092 -82.9461 53° Northeast 379 436 27,800 700 Climbing Atlanta Center
Tue 10:24:07 AM 34.4772 -82.8444 51° Northeast 385 443 28,500 600 Climbing Atlanta Center
Tue 10:25:07 AM 34.5389 -82.7453 53° Northeast 379 436 29,000 250 Climbing Atlanta Center
Tue 10:26:07 AM 34.5919 -82.6483 56° Northeast 379 436 29,000  Level Atlanta Center
Tue 10:27:07 AM 34.6658 -82.5361 51° Northeast 384 442 29,000  Level Atlanta Center
Tue 10:28:07 AM 34.7333 -82.4261 53° Northeast 389 448 29,000  Level Atlanta Center
Tue 10:29:07 AM 34.7986 -82.3136 55° Northeast 394 453 29,000  Level Atlanta Center
Tue 10:30:07 AM 34.8678 -82.2033 53° Northeast 399 459 29,000  Level Atlanta Center
Tue 10:31:07 AM 34.9392 -82.0903 52° Northeast 410 472 29,000  Level Atlanta Center
Tue 10:32:07 AM 35.0061 -81.9772 54° Northeast 415 478 29,000  Level Atlanta Center
Tue 10:33:07 AM 35.0750 -81.8561 55° Northeast 420 483 29,000  Level Atlanta Center
Tue 10:34:07 AM 35.1314 -81.7481 57° Northeast 425 489 29,000  Level Atlanta Center
Tue 10:35:07 AM 35.1958 -81.6242 57° Northeast 425 489 29,000  Level Atlanta Center
Tue 10:36:07 AM 35.2581 -81.5053 57° Northeast 419 482 29,000  Level Atlanta Center
Tue 10:37:07 AM 35.3222 -81.3814 58° Northeast 419 482 29,000  Level Atlanta Center
Tue 10:38:07 AM 35.3864 -81.2594 57° Northeast 419 482 29,000  Level Atlanta Center
Tue 10:39:07 AM 35.4481 -81.1325 59° Northeast 419 482 29,000  Level Atlanta Center
Tue 10:40:07 AM 35.5161 -81.0103 56° Northeast 425 489 29,000  Level Atlanta Center
Tue 10:41:07 AM 35.5797 -80.8853 58° Northeast 425 489 29,000  Level Atlanta Center
Tue 10:42:07 AM 35.6453 -80.7600 57° Northeast 425 489 29,000  Level Atlanta Center
Tue 10:43:07 AM 35.7086 -80.6372 58° Northeast 419 482 29,000  Level Atlanta Center
Tue 10:44:07 AM 35.7719 -80.5144 58° Northeast 419 482 29,000  Level Atlanta Center
Tue 10:45:07 AM 35.8350 -80.3886 58° Northeast 419 482 29,000  Level Atlanta Center
Tue 10:47:09 AM 35.9633 -80.1342 58° Northeast 431 496 29,000  Level Washington Center
Tue 10:48:09 AM 36.0283 -80.0147 56° Northeast 426 490 29,000  Level Washington Center
Tue 10:49:10 AM 36.0956 -79.8925 56° Northeast 421 484 29,000  Level Washington Center
Tue 10:50:08 AM 36.1733 -79.7553 55° Northeast 435 501 29,000 -353 Level Washington Center
Tue 10:51:09 AM 36.2333 -79.6478 55° Northeast 435 501 28,300 -1,438 Descending Washington Center
Tue 10:52:09 AM 36.3111 -79.5075 55° Northeast 440 506 26,100 -1,636 Descending Washington Center
Tue 10:53:10 AM 36.3794 -79.3947 53° Northeast 440 506 25,000 -545 Descending Washington Center
Tue 10:54:10 AM 36.4547 -79.2564 56° Northeast 440 506 25,000  Level Washington Center
Tue 10:55:08 AM 36.5186 -79.1406 56° Northeast 440 506 25,000  Level Washington Center
Tue 10:56:08 AM 36.5911 -79.0144 54° Northeast 440 506 25,000  Level Washington Center
Tue 10:57:08 AM 36.6594 -78.8881 56° Northeast 440 506 25,000  Level Washington Center
Tue 10:58:09 AM 36.7364 -78.7436 56° Northeast 445 512 25,000  Level Washington Center
Tue 10:59:09 AM 36.8064 -78.6167 55° Northeast 445 512 25,000  Level Washington Center
Tue 11:00:09 AM 36.8761 -78.4922 55° Northeast 445 512 25,000  Level Washington Center
Tue 11:01:10 AM 36.9394 -78.3775 55° Northeast 445 512 25,000  Level Washington Center
Tue 11:02:10 AM 37.0114 -78.2475 55° Northeast 445 512 25,000  Level Washington Center
Tue 11:03:08 AM 37.1072 -78.1544 38° Northeast 428 493 25,000  Level Washington Center
Tue 11:04:08 AM 37.2089 -78.0744 32° Northeast 422 486 25,000 -496 Level Washington Center
Tue 11:05:09 AM 37.3169 -77.9917 31° Northeast 440 506 24,000 -984 Descending Washington Center
Tue 11:06:10 AM 37.4272 -77.9089 31° Northeast 452 520 23,000 -992 Descending Washington Center
Tue 11:07:10 AM 37.5350 -77.8283 31° Northeast 457 526 22,000 -504 Descending Washington Center
Tue 11:08:09 AM 37.6300 -77.7708 26° Northeast 427 491 22,000 -1,008 Level Washington Center
Tue 11:09:09 AM 37.7164 -77.7183 26° Northeast 375 432 20,000 -1,884 Descending Washington Center
Tue 11:10:10 AM 37.8028 -77.6681 25° Northeast 348 400 18,200 -1,714 Descending Washington Center
Tue 11:11:08 AM 37.8872 -77.6178 25° Northeast 334 384 16,600 -1,714 Descending Washington Center
Tue 11:12:09 AM 37.9672 -77.5725 24° Northeast 324 373 14,800 -1,770 Descending Washington Center
Tue 11:13:10 AM 38.0450 -77.5297 23° Northeast 319 367 13,000 -1,785 Descending Washington Center
Tue 11:14:10 AM 38.1208 -77.4842 25° Northeast 306 352 11,200 -1,475 Descending Washington Center
Tue 11:15:08 AM 38.1967 -77.4411 24° Northeast 300 345 10,100 -655 Descending Washington Center
Tue 11:16:09 AM 38.2700 -77.4139 16° North 289 333 9,900 -738 Descending Washington Center
Tue 11:17:10 AM 38.3450 -77.4050 North 278 320 8,600 -1,311 Descending Washington Center
Tue 11:18:08 AM 38.4225 -77.3911 North 278 320 7,300 -1,311 Descending Washington Center
Tue 11:19:09 AM 38.4956 -77.3797 North 272 313 6,000 -1,082 Descending Washington Center
Tue 11:20:10 AM 38.5642 -77.4053 344° North 261 300 5,100 -446 Descending Washington Center
Tue 11:21:10 AM 38.6303 -77.4414 337° Northwest 255 293 5,100  Level Washington Center
Tue 11:22:08 AM 38.6986 -77.4644 345° North 255 293 5,100 -940 Level Washington Center
Tue 11:23:24 AM 38.8000 -77.4667 359° North 243 280 3,000 -1,368 Descending Potomac TRACON
Tue 11:24:24 AM 38.8500 -77.4667 360° North 188 216 2,000 -900 Descending Potomac TRACON
Tue 11:25:24 AM 38.9000 -77.4667 360° North 138 159 1,200 -737 Descending Potomac TRACON
Tue 11:26:18 AM 38.9333 -77.4667 360° North 139 160 600 -667 Descending Potomac TRACON

Login

Don't have an account? Register now (free) for customized features, flight alerts, and more!